sensor_id;sensor_type;location;lat;lon;timestamp;temperature;humidity
62583;DHT22;48641;51.676;5.808;2023-04-25T00:00:18;15.20;63.10
62583;DHT22;48641;51.676;5.808;2023-04-25T00:02:44;15.20;63.10
62583;DHT22;48641;51.676;5.808;2023-04-25T00:05:09;15.20;63.10
62583;DHT22;48641;51.676;5.808;2023-04-25T00:07:36;15.20;63.10
62583;DHT22;48641;51.676;5.808;2023-04-25T00:10:02;15.30;63.20
62583;DHT22;48641;51.676;5.808;2023-04-25T00:12:27;15.20;63.10
62583;DHT22;48641;51.676;5.808;2023-04-25T00:14:56;15.20;63.10
62583;DHT22;48641;51.676;5.808;2023-04-25T00:17:25;15.20;63.20
62583;DHT22;48641;51.676;5.808;2023-04-25T00:19:52;15.20;63.10
62583;DHT22;48641;51.676;5.808;2023-04-25T00:22:18;15.10;63.40
62583;DHT22;48641;51.676;5.808;2023-04-25T00:24:43;15.10;63.40
62583;DHT22;48641;51.676;5.808;2023-04-25T00:27:09;15.10;63.40
62583;DHT22;48641;51.676;5.808;2023-04-25T00:29:35;15.10;63.30
62583;DHT22;48641;51.676;5.808;2023-04-25T00:32:01;15.10;63.30
62583;DHT22;48641;51.676;5.808;2023-04-25T00:34:26;15.10;63.40
62583;DHT22;48641;51.676;5.808;2023-04-25T00:36:52;15.20;63.30
62583;DHT22;48641;51.676;5.808;2023-04-25T00:39:18;15.20;63.30
62583;DHT22;48641;51.676;5.808;2023-04-25T00:41:44;15.10;63.20
62583;DHT22;48641;51.676;5.808;2023-04-25T00:44:11;15.20;63.40
62583;DHT22;48641;51.676;5.808;2023-04-25T00:46:38;15.20;63.30
62583;DHT22;48641;51.676;5.808;2023-04-25T00:49:04;15.10;63.20
62583;DHT22;48641;51.676;5.808;2023-04-25T00:51:30;15.20;63.30
62583;DHT22;48641;51.676;5.808;2023-04-25T00:53:58;15.20;63.20
62583;DHT22;48641;51.676;5.808;2023-04-25T00:56:24;15.10;63.30
62583;DHT22;48641;51.676;5.808;2023-04-25T00:58:53;15.10;63.20
62583;DHT22;48641;51.676;5.808;2023-04-25T01:01:22;15.10;63.20
62583;DHT22;48641;51.676;5.808;2023-04-25T01:03:49;15.10;63.10
62583;DHT22;48641;51.676;5.808;2023-04-25T01:06:16;15.10;63.10
62583;DHT22;48641;51.676;5.808;2023-04-25T01:08:41;15.10;63.20
62583;DHT22;48641;51.676;5.808;2023-04-25T01:11:07;15.10;63.20
62583;DHT22;48641;51.676;5.808;2023-04-25T01:13:34;15.10;63.10
62583;DHT22;48641;51.676;5.808;2023-04-25T01:16:00;15.10;63.10
62583;DHT22;48641;51.676;5.808;2023-04-25T01:18:26;15.10;63.20
62583;DHT22;48641;51.676;5.808;2023-04-25T01:20:52;15.10;63.10
62583;DHT22;48641;51.676;5.808;2023-04-25T01:23:22;15.10;63.10
62583;DHT22;48641;51.676;5.808;2023-04-25T01:25:48;15.10;63.20
62583;DHT22;48641;51.676;5.808;2023-04-25T01:28:15;15.10;63.10
62583;DHT22;48641;51.676;5.808;2023-04-25T01:30:41;15.10;63.30
62583;DHT22;48641;51.676;5.808;2023-04-25T01:33:08;15.10;63.10
62583;DHT22;48641;51.676;5.808;2023-04-25T01:35:34;15.10;63.10
62583;DHT22;48641;51.676;5.808;2023-04-25T01:38:00;15.10;63.20
62583;DHT22;48641;51.676;5.808;2023-04-25T01:40:27;15.10;63.10
62583;DHT22;48641;51.676;5.808;2023-04-25T01:42:53;15.10;63.20
62583;DHT22;48641;51.676;5.808;2023-04-25T01:45:19;15.10;63.20
62583;DHT22;48641;51.676;5.808;2023-04-25T01:47:45;15.10;63.20
62583;DHT22;48641;51.676;5.808;2023-04-25T01:50:15;15.10;63.20
62583;DHT22;48641;51.676;5.808;2023-04-25T01:52:41;15.10;63.20
62583;DHT22;48641;51.676;5.808;2023-04-25T01:55:07;15.10;63.20
62583;DHT22;48641;51.676;5.808;2023-04-25T01:57:33;15.10;63.20
62583;DHT22;48641;51.676;5.808;2023-04-25T02:00:01;15.10;63.10
62583;DHT22;48641;51.676;5.808;2023-04-25T02:02:26;15.10;63.20
62583;DHT22;48641;51.676;5.808;2023-04-25T02:04:52;15.10;63.20
62583;DHT22;48641;51.676;5.808;2023-04-25T02:07:19;15.10;63.20
62583;DHT22;48641;51.676;5.808;2023-04-25T02:09:45;15.00;63.10
62583;DHT22;48641;51.676;5.808;2023-04-25T02:12:10;15.00;63.10
62583;DHT22;48641;51.676;5.808;2023-04-25T02:14:36;15.10;63.10
62583;DHT22;48641;51.676;5.808;2023-04-25T02:17:02;15.00;63.20
62583;DHT22;48641;51.676;5.808;2023-04-25T02:19:28;15.00;63.10
62583;DHT22;48641;51.676;5.808;2023-04-25T02:21:53;15.00;63.10
62583;DHT22;48641;51.676;5.808;2023-04-25T02:24:19;15.00;63.10
62583;DHT22;48641;51.676;5.808;2023-04-25T02:26:45;15.10;63.20
62583;DHT22;48641;51.676;5.808;2023-04-25T02:29:12;15.00;63.10
62583;DHT22;48641;51.676;5.808;2023-04-25T02:31:37;15.00;63.10
62583;DHT22;48641;51.676;5.808;2023-04-25T02:34:03;15.00;63.10
62583;DHT22;48641;51.676;5.808;2023-04-25T02:36:29;15.00;63.10
62583;DHT22;48641;51.676;5.808;2023-04-25T02:38:57;15.00;63.10
62583;DHT22;48641;51.676;5.808;2023-04-25T02:41:23;15.00;63.10
62583;DHT22;48641;51.676;5.808;2023-04-25T02:43:48;15.00;63.10
62583;DHT22;48641;51.676;5.808;2023-04-25T02:46:14;15.00;63.20
62583;DHT22;48641;51.676;5.808;2023-04-25T02:48:40;15.00;63.10
62583;DHT22;48641;51.676;5.808;2023-04-25T02:51:05;15.00;63.20
62583;DHT22;48641;51.676;5.808;2023-04-25T02:53:31;15.00;63.20
62583;DHT22;48641;51.676;5.808;2023-04-25T02:55:56;15.00;63.10
62583;DHT22;48641;51.676;5.808;2023-04-25T02:58:23;15.00;63.10
62583;DHT22;48641;51.676;5.808;2023-04-25T03:00:49;15.00;63.10
62583;DHT22;48641;51.676;5.808;2023-04-25T03:03:14;15.00;63.10
62583;DHT22;48641;51.676;5.808;2023-04-25T03:05:45;15.00;63.10
62583;DHT22;48641;51.676;5.808;2023-04-25T03:08:12;15.00;63.20
62583;DHT22;48641;51.676;5.808;2023-04-25T03:10:38;14.90;63.10
62583;DHT22;48641;51.676;5.808;2023-04-25T03:13:03;14.90;63.30
62583;DHT22;48641;51.676;5.808;2023-04-25T03:15:29;14.90;63.40
62583;DHT22;48641;51.676;5.808;2023-04-25T03:17:54;14.90;63.40
62583;DHT22;48641;51.676;5.808;2023-04-25T03:20:20;14.90;63.30
62583;DHT22;48641;51.676;5.808;2023-04-25T03:22:46;14.90;64.30
62583;DHT22;48641;51.676;5.808;2023-04-25T03:25:11;14.90;63.20
62583;DHT22;48641;51.676;5.808;2023-04-25T03:27:37;14.90;63.30
62583;DHT22;48641;51.676;5.808;2023-04-25T03:30:02;14.90;63.20
62583;DHT22;48641;51.676;5.808;2023-04-25T03:32:29;14.90;63.20
62583;DHT22;48641;51.676;5.808;2023-04-25T03:34:55;14.90;63.20
62583;DHT22;48641;51.676;5.808;2023-04-25T03:37:20;14.90;63.20
62583;DHT22;48641;51.676;5.808;2023-04-25T03:39:46;14.90;63.20
62583;DHT22;48641;51.676;5.808;2023-04-25T03:42:12;14.90;63.20
62583;DHT22;48641;51.676;5.808;2023-04-25T03:44:37;14.90;63.20
62583;DHT22;48641;51.676;5.808;2023-04-25T03:47:03;14.90;63.20
62583;DHT22;48641;51.676;5.808;2023-04-25T03:49:28;14.90;63.20
62583;DHT22;48641;51.676;5.808;2023-04-25T03:51:54;14.90;63.20
62583;DHT22;48641;51.676;5.808;2023-04-25T03:54:19;14.90;63.20
62583;DHT22;48641;51.676;5.808;2023-04-25T03:56:45;14.90;63.20
62583;DHT22;48641;51.676;5.808;2023-04-25T03:59:11;14.90;63.20
62583;DHT22;48641;51.676;5.808;2023-04-25T04:01:37;14.90;63.20
62583;DHT22;48641;51.676;5.808;2023-04-25T04:04:02;14.90;63.10
62583;DHT22;48641;51.676;5.808;2023-04-25T04:06:29;14.90;63.10
62583;DHT22;48641;51.676;5.808;2023-04-25T04:08:55;14.80;63.10
62583;DHT22;48641;51.676;5.808;2023-04-25T04:11:20;14.90;63.20
62583;DHT22;48641;51.676;5.808;2023-04-25T04:13:46;14.90;63.10
62583;DHT22;48641;51.676;5.808;2023-04-25T04:16:11;14.90;63.10
62583;DHT22;48641;51.676;5.808;2023-04-25T04:18:37;14.80;63.10
62583;DHT22;48641;51.676;5.808;2023-04-25T04:21:03;14.90;63.20
62583;DHT22;48641;51.676;5.808;2023-04-25T04:23:28;14.80;63.10
62583;DHT22;48641;51.676;5.808;2023-04-25T04:25:55;14.80;63.10
62583;DHT22;48641;51.676;5.808;2023-04-25T04:28:21;14.80;63.10
62583;DHT22;48641;51.676;5.808;2023-04-25T04:30:47;14.80;63.10
62583;DHT22;48641;51.676;5.808;2023-04-25T04:33:13;14.80;63.10
62583;DHT22;48641;51.676;5.808;2023-04-25T04:35:40;14.90;63.20
62583;DHT22;48641;51.676;5.808;2023-04-25T04:38:07;14.80;63.00
62583;DHT22;48641;51.676;5.808;2023-04-25T04:40:32;14.80;63.10
62583;DHT22;48641;51.676;5.808;2023-04-25T04:42:58;14.80;63.00
62583;DHT22;48641;51.676;5.808;2023-04-25T04:45:23;14.80;63.10
62583;DHT22;48641;51.676;5.808;2023-04-25T04:47:49;14.80;63.00
62583;DHT22;48641;51.676;5.808;2023-04-25T04:50:15;14.80;63.00
62583;DHT22;48641;51.676;5.808;2023-04-25T04:52:42;14.80;63.10
62583;DHT22;48641;51.676;5.808;2023-04-25T04:55:08;14.80;63.00
62583;DHT22;48641;51.676;5.808;2023-04-25T04:57:34;14.80;63.10
62583;DHT22;48641;51.676;5.808;2023-04-25T05:00:00;14.80;63.10
62583;DHT22;48641;51.676;5.808;2023-04-25T05:02:26;14.80;64.00
62583;DHT22;48641;51.676;5.808;2023-04-25T05:04:52;14.80;63.10
62583;DHT22;48641;51.676;5.808;2023-04-25T05:07:18;14.80;63.10
62583;DHT22;48641;51.676;5.808;2023-04-25T05:09:44;14.80;63.00
62583;DHT22;48641;51.676;5.808;2023-04-25T05:12:10;14.80;63.00
62583;DHT22;48641;51.676;5.808;2023-04-25T05:14:35;14.80;63.10
62583;DHT22;48641;51.676;5.808;2023-04-25T05:17:01;14.80;63.10
62583;DHT22;48641;51.676;5.808;2023-04-25T05:19:30;14.80;63.00
62583;DHT22;48641;51.676;5.808;2023-04-25T05:21:55;14.80;63.10
62583;DHT22;48641;51.676;5.808;2023-04-25T05:24:21;14.80;63.10
62583;DHT22;48641;51.676;5.808;2023-04-25T05:26:46;14.70;63.00
62583;DHT22;48641;51.676;5.808;2023-04-25T05:29:12;14.80;63.10
62583;DHT22;48641;51.676;5.808;2023-04-25T05:31:37;14.70;63.00
62583;DHT22;48641;51.676;5.808;2023-04-25T05:34:03;14.80;63.10
62583;DHT22;48641;51.676;5.808;2023-04-25T05:36:29;14.80;63.10
62583;DHT22;48641;51.676;5.808;2023-04-25T05:38:55;14.70;63.00
62583;DHT22;48641;51.676;5.808;2023-04-25T05:41:21;14.70;63.00
62583;DHT22;48641;51.676;5.808;2023-04-25T05:43:46;14.70;63.10
62583;DHT22;48641;51.676;5.808;2023-04-25T05:46:14;14.70;63.00
62583;DHT22;48641;51.676;5.808;2023-04-25T05:48:42;14.70;63.00
62583;DHT22;48641;51.676;5.808;2023-04-25T05:51:08;14.70;63.00
62583;DHT22;48641;51.676;5.808;2023-04-25T05:53:34;14.70;63.10
62583;DHT22;48641;51.676;5.808;2023-04-25T05:55:59;14.70;63.10
62583;DHT22;48641;51.676;5.808;2023-04-25T05:58:25;14.70;63.10
62583;DHT22;48641;51.676;5.808;2023-04-25T06:00:51;14.70;63.00
62583;DHT22;48641;51.676;5.808;2023-04-25T06:03:16;14.70;63.00
62583;DHT22;48641;51.676;5.808;2023-04-25T06:05:42;14.70;63.10
62583;DHT22;48641;51.676;5.808;2023-04-25T06:08:09;14.70;63.10
62583;DHT22;48641;51.676;5.808;2023-04-25T06:10:35;14.70;63.00
62583;DHT22;48641;51.676;5.808;2023-04-25T06:13:01;14.70;63.10
62583;DHT22;48641;51.676;5.808;2023-04-25T06:15:26;14.70;63.10
62583;DHT22;48641;51.676;5.808;2023-04-25T06:17:52;14.70;63.10
62583;DHT22;48641;51.676;5.808;2023-04-25T06:20:18;14.70;63.20
62583;DHT22;48641;51.676;5.808;2023-04-25T06:22:45;14.70;63.30
62583;DHT22;48641;51.676;5.808;2023-04-25T06:25:10;14.60;63.40
62583;DHT22;48641;51.676;5.808;2023-04-25T06:27:36;14.60;63.60
62583;DHT22;48641;51.676;5.808;2023-04-25T06:30:01;14.60;63.60
62583;DHT22;48641;51.676;5.808;2023-04-25T06:32:27;14.60;63.70
62583;DHT22;48641;51.676;5.808;2023-04-25T06:34:55;14.60;63.80
62583;DHT22;48641;51.676;5.808;2023-04-25T06:37:20;14.60;63.80
62583;DHT22;48641;51.676;5.808;2023-04-25T06:39:46;14.60;63.80
62583;DHT22;48641;51.676;5.808;2023-04-25T06:42:11;14.60;63.90
62583;DHT22;48641;51.676;5.808;2023-04-25T06:44:37;14.60;63.90
62583;DHT22;48641;51.676;5.808;2023-04-25T06:47:03;14.70;63.90
62583;DHT22;48641;51.676;5.808;2023-04-25T06:49:28;14.70;63.90
62583;DHT22;48641;51.676;5.808;2023-04-25T06:51:54;14.70;63.90
62583;DHT22;48641;51.676;5.808;2023-04-25T06:54:19;14.70;63.90
62583;DHT22;48641;51.676;5.808;2023-04-25T06:56:48;14.70;64.00
62583;DHT22;48641;51.676;5.808;2023-04-25T06:59:14;14.70;63.90
62583;DHT22;48641;51.676;5.808;2023-04-25T07:01:39;14.70;64.00
62583;DHT22;48641;51.676;5.808;2023-04-25T07:04:05;14.70;63.90
62583;DHT22;48641;51.676;5.808;2023-04-25T07:06:31;14.70;63.90
62583;DHT22;48641;51.676;5.808;2023-04-25T07:08:57;14.70;63.90
62583;DHT22;48641;51.676;5.808;2023-04-25T07:11:23;14.70;63.90
62583;DHT22;48641;51.676;5.808;2023-04-25T07:13:48;14.70;64.00
62583;DHT22;48641;51.676;5.808;2023-04-25T07:16:14;14.70;65.00
62583;DHT22;48641;51.676;5.808;2023-04-25T07:18:39;14.70;64.00
62583;DHT22;48641;51.676;5.808;2023-04-25T07:21:05;14.70;64.30
62583;DHT22;48641;51.676;5.808;2023-04-25T07:23:31;14.80;64.70
62583;DHT22;48641;51.676;5.808;2023-04-25T07:25:56;14.80;64.70
62583;DHT22;48641;51.676;5.808;2023-04-25T07:28:22;14.80;64.50
62583;DHT22;48641;51.676;5.808;2023-04-25T07:30:47;14.90;64.30
62583;DHT22;48641;51.676;5.808;2023-04-25T07:33:13;14.90;64.30
62583;DHT22;48641;51.676;5.808;2023-04-25T07:35:39;15.00;64.20
62583;DHT22;48641;51.676;5.808;2023-04-25T07:38:05;15.00;64.00
62583;DHT22;48641;51.676;5.808;2023-04-25T07:40:32;15.00;63.90
62583;DHT22;48641;51.676;5.808;2023-04-25T07:42:57;15.10;63.60
62583;DHT22;48641;51.676;5.808;2023-04-25T07:45:23;15.00;63.20
62583;DHT22;48641;51.676;5.808;2023-04-25T07:47:49;15.00;62.80
62583;DHT22;48641;51.676;5.808;2023-04-25T07:50:15;15.00;62.50
62583;DHT22;48641;51.676;5.808;2023-04-25T07:52:41;15.00;62.20
62583;DHT22;48641;51.676;5.808;2023-04-25T07:55:06;15.00;62.10
62583;DHT22;48641;51.676;5.808;2023-04-25T07:57:32;15.10;61.90
62583;DHT22;48641;51.676;5.808;2023-04-25T07:59:58;15.10;61.60
62583;DHT22;48641;51.676;5.808;2023-04-25T08:02:23;15.00;60.90
62583;DHT22;48641;51.676;5.808;2023-04-25T08:04:50;15.00;61.10
62583;DHT22;48641;51.676;5.808;2023-04-25T08:07:16;15.10;61.20
62583;DHT22;48641;51.676;5.808;2023-04-25T08:09:42;15.10;61.10
62583;DHT22;48641;51.676;5.808;2023-04-25T08:12:07;15.00;61.00
62583;DHT22;48641;51.676;5.808;2023-04-25T08:14:33;15.00;60.50
62583;DHT22;48641;51.676;5.808;2023-04-25T08:17:02;15.00;60.30
62583;DHT22;48641;51.676;5.808;2023-04-25T08:19:29;15.00;59.70
62583;DHT22;48641;51.676;5.808;2023-04-25T08:21:56;14.90;59.30
62583;DHT22;48641;51.676;5.808;2023-04-25T08:24:22;14.90;59.20
62583;DHT22;48641;51.676;5.808;2023-04-25T08:26:48;14.90;59.00
62583;DHT22;48641;51.676;5.808;2023-04-25T08:29:14;14.80;58.90
62583;DHT22;48641;51.676;5.808;2023-04-25T08:31:39;14.80;59.00
62583;DHT22;48641;51.676;5.808;2023-04-25T08:34:05;14.80;59.10
62583;DHT22;48641;51.676;5.808;2023-04-25T08:36:31;14.80;59.30
62583;DHT22;48641;51.676;5.808;2023-04-25T08:38:57;14.80;59.40
62583;DHT22;48641;51.676;5.808;2023-04-25T08:41:23;14.80;59.60
62583;DHT22;48641;51.676;5.808;2023-04-25T08:43:49;14.80;59.70
62583;DHT22;48641;51.676;5.808;2023-04-25T08:46:18;14.80;59.80
62583;DHT22;48641;51.676;5.808;2023-04-25T08:48:45;14.80;60.00
62583;DHT22;48641;51.676;5.808;2023-04-25T08:51:23;14.80;60.00
62583;DHT22;48641;51.676;5.808;2023-04-25T08:53:52;14.80;60.20
62583;DHT22;48641;51.676;5.808;2023-04-25T08:56:18;14.80;60.30
62583;DHT22;48641;51.676;5.808;2023-04-25T08:58:48;14.80;60.40
62583;DHT22;48641;51.676;5.808;2023-04-25T09:01:13;14.90;60.50
62583;DHT22;48641;51.676;5.808;2023-04-25T09:03:42;14.90;60.60
62583;DHT22;48641;51.676;5.808;2023-04-25T09:06:10;14.90;60.70
62583;DHT22;48641;51.676;5.808;2023-04-25T09:08:37;14.80;60.70
62583;DHT22;48641;51.676;5.808;2023-04-25T09:11:03;14.80;60.80
62583;DHT22;48641;51.676;5.808;2023-04-25T09:13:29;14.90;60.90
62583;DHT22;48641;51.676;5.808;2023-04-25T09:15:57;14.80;60.80
62583;DHT22;48641;51.676;5.808;2023-04-25T09:18:30;14.80;60.90
62583;DHT22;48641;51.676;5.808;2023-04-25T09:20:58;14.80;61.00
62583;DHT22;48641;51.676;5.808;2023-04-25T09:23:30;14.80;60.90
62583;DHT22;48641;51.676;5.808;2023-04-25T09:26:03;14.80;60.50
62583;DHT22;48641;51.676;5.808;2023-04-25T09:28:31;14.80;60.00
62583;DHT22;48641;51.676;5.808;2023-04-25T09:30:58;14.80;59.60
62583;DHT22;48641;51.676;5.808;2023-04-25T09:33:31;14.80;59.30
62583;DHT22;48641;51.676;5.808;2023-04-25T09:36:05;14.80;58.80
62583;DHT22;48641;51.676;5.808;2023-04-25T09:38:36;14.70;58.40
62583;DHT22;48641;51.676;5.808;2023-04-25T09:41:05;14.70;58.30
62583;DHT22;48641;51.676;5.808;2023-04-25T09:43:31;14.70;58.20
62583;DHT22;48641;51.676;5.808;2023-04-25T09:45:56;14.60;58.30
62583;DHT22;48641;51.676;5.808;2023-04-25T09:48:27;14.70;58.40
62583;DHT22;48641;51.676;5.808;2023-04-25T09:51:13;14.60;58.80
62583;DHT22;48641;51.676;5.808;2023-04-25T09:53:43;14.70;59.10
62583;DHT22;48641;51.676;5.808;2023-04-25T09:56:10;14.70;59.40
62583;DHT22;48641;51.676;5.808;2023-04-25T09:58:38;14.70;59.60
62583;DHT22;48641;51.676;5.808;2023-04-25T10:01:09;14.80;59.80
62583;DHT22;48641;51.676;5.808;2023-04-25T10:03:37;14.80;59.90
62583;DHT22;48641;51.676;5.808;2023-04-25T10:06:07;14.80;60.00
62583;DHT22;48641;51.676;5.808;2023-04-25T10:08:35;14.90;60.10
62583;DHT22;48641;51.676;5.808;2023-04-25T10:11:03;14.90;60.30
62583;DHT22;48641;51.676;5.808;2023-04-25T10:13:30;14.90;60.40
62583;DHT22;48641;51.676;5.808;2023-04-25T10:15:58;14.90;60.30
62583;DHT22;48641;51.676;5.808;2023-04-25T10:18:25;14.90;60.30
62583;DHT22;48641;51.676;5.808;2023-04-25T10:20:52;15.00;60.40
62583;DHT22;48641;51.676;5.808;2023-04-25T10:23:18;15.00;60.40
62583;DHT22;48641;51.676;5.808;2023-04-25T10:25:45;15.00;60.60
62583;DHT22;48641;51.676;5.808;2023-04-25T10:28:11;15.00;61.60
62583;DHT22;48641;51.676;5.808;2023-04-25T10:30:36;15.00;60.70
62583;DHT22;48641;51.676;5.808;2023-04-25T10:33:16;15.10;60.80
62583;DHT22;48641;51.676;5.808;2023-04-25T10:35:45;15.10;61.70
62583;DHT22;48641;51.676;5.808;2023-04-25T10:38:11;15.10;60.80
62583;DHT22;48641;51.676;5.808;2023-04-25T10:40:39;15.10;60.80
62583;DHT22;48641;51.676;5.808;2023-04-25T10:43:40;15.10;60.80
62583;DHT22;48641;51.676;5.808;2023-04-25T10:46:26;15.10;60.60
62583;DHT22;48641;51.676;5.808;2023-04-25T10:48:56;15.10;60.50
62583;DHT22;48641;51.676;5.808;2023-04-25T10:51:25;15.10;60.60
62583;DHT22;48641;51.676;5.808;2023-04-25T10:56:21;15.10;60.60
62583;DHT22;48641;51.676;5.808;2023-04-25T10:58:48;15.10;60.70
62583;DHT22;48641;51.676;5.808;2023-04-25T11:01:14;15.10;60.70
62583;DHT22;48641;51.676;5.808;2023-04-25T11:03:42;15.10;60.80
62583;DHT22;48641;51.676;5.808;2023-04-25T11:06:42;15.10;60.80
62583;DHT22;48641;51.676;5.808;2023-04-25T11:09:11;15.20;60.70
62583;DHT22;48641;51.676;5.808;2023-04-25T11:11:41;15.20;60.90
62583;DHT22;48641;51.676;5.808;2023-04-25T11:14:07;15.20;60.90
62583;DHT22;48641;51.676;5.808;2023-04-25T11:16:32;15.20;60.90
62583;DHT22;48641;51.676;5.808;2023-04-25T11:18:58;15.20;60.90
62583;DHT22;48641;51.676;5.808;2023-04-25T11:21:25;15.20;60.90
62583;DHT22;48641;51.676;5.808;2023-04-25T11:23:54;15.20;60.90
62583;DHT22;48641;51.676;5.808;2023-04-25T11:26:22;15.20;60.90
62583;DHT22;48641;51.676;5.808;2023-04-25T11:28:49;15.20;60.90
62583;DHT22;48641;51.676;5.808;2023-04-25T11:31:14;15.20;60.90
62583;DHT22;48641;51.676;5.808;2023-04-25T11:33:40;15.20;60.80
62583;DHT22;48641;51.676;5.808;2023-04-25T11:36:06;15.20;60.80
62583;DHT22;48641;51.676;5.808;2023-04-25T11:38:32;15.30;61.80
62583;DHT22;48641;51.676;5.808;2023-04-25T11:40:58;15.20;60.80
62583;DHT22;48641;51.676;5.808;2023-04-25T11:43:25;15.20;60.80
62583;DHT22;48641;51.676;5.808;2023-04-25T11:45:51;15.30;60.90
62583;DHT22;48641;51.676;5.808;2023-04-25T11:48:18;15.20;60.80
62583;DHT22;48641;51.676;5.808;2023-04-25T11:50:43;15.20;60.80
62583;DHT22;48641;51.676;5.808;2023-04-25T11:53:10;15.30;61.00
62583;DHT22;48641;51.676;5.808;2023-04-25T11:55:36;15.30;61.20
62583;DHT22;48641;51.676;5.808;2023-04-25T11:58:03;15.30;61.30
62583;DHT22;48641;51.676;5.808;2023-04-25T12:00:29;15.40;61.40
62583;DHT22;48641;51.676;5.808;2023-04-25T12:02:56;15.40;61.30
62583;DHT22;48641;51.676;5.808;2023-04-25T12:05:28;15.40;61.20
62583;DHT22;48641;51.676;5.808;2023-04-25T12:07:54;15.40;61.20
62583;DHT22;48641;51.676;5.808;2023-04-25T12:10:20;15.40;61.20
62583;DHT22;48641;51.676;5.808;2023-04-25T12:12:47;15.40;61.10
62583;DHT22;48641;51.676;5.808;2023-04-25T12:15:15;15.40;61.00
62583;DHT22;48641;51.676;5.808;2023-04-25T12:17:45;15.40;61.10
62583;DHT22;48641;51.676;5.808;2023-04-25T12:20:16;15.40;61.10
62583;DHT22;48641;51.676;5.808;2023-04-25T12:22:44;15.40;61.20
62583;DHT22;48641;51.676;5.808;2023-04-25T12:28:19;15.40;61.30
62583;DHT22;48641;51.676;5.808;2023-04-25T12:31:05;15.40;61.20
62583;DHT22;48641;51.676;5.808;2023-04-25T12:33:32;15.40;61.30
62583;DHT22;48641;51.676;5.808;2023-04-25T12:35:58;15.40;62.20
62583;DHT22;48641;51.676;5.808;2023-04-25T12:38:27;15.40;61.00
62583;DHT22;48641;51.676;5.808;2023-04-25T12:40:58;15.40;60.80
62583;DHT22;48641;51.676;5.808;2023-04-25T12:43:23;15.50;60.60
62583;DHT22;48641;51.676;5.808;2023-04-25T12:45:50;15.50;60.50
62583;DHT22;48641;51.676;5.808;2023-04-25T12:48:17;15.50;60.50
62583;DHT22;48641;51.676;5.808;2023-04-25T12:50:43;15.50;60.40
62583;DHT22;48641;51.676;5.808;2023-04-25T12:53:09;15.50;60.30
62583;DHT22;48641;51.676;5.808;2023-04-25T12:55:35;15.50;60.30
62583;DHT22;48641;51.676;5.808;2023-04-25T12:58:00;15.60;60.30
62583;DHT22;48641;51.676;5.808;2023-04-25T13:00:26;15.60;60.20
62583;DHT22;48641;51.676;5.808;2023-04-25T13:02:52;15.60;60.20
62583;DHT22;48641;51.676;5.808;2023-04-25T13:05:17;15.60;60.00
62583;DHT22;48641;51.676;5.808;2023-04-25T13:07:43;15.60;60.00
62583;DHT22;48641;51.676;5.808;2023-04-25T13:10:09;15.60;60.00
62583;DHT22;48641;51.676;5.808;2023-04-25T13:12:34;15.60;60.00
62583;DHT22;48641;51.676;5.808;2023-04-25T13:15:00;15.60;59.90
62583;DHT22;48641;51.676;5.808;2023-04-25T13:17:26;15.60;59.90
62583;DHT22;48641;51.676;5.808;2023-04-25T13:19:51;15.60;60.00
62583;DHT22;48641;51.676;5.808;2023-04-25T13:22:17;15.50;60.30
62583;DHT22;48641;51.676;5.808;2023-04-25T13:24:45;15.50;60.40
62583;DHT22;48641;51.676;5.808;2023-04-25T13:27:11;15.50;60.30
62583;DHT22;48641;51.676;5.808;2023-04-25T13:29:36;15.50;60.00
62583;DHT22;48641;51.676;5.808;2023-04-25T13:32:04;15.50;59.70
62583;DHT22;48641;51.676;5.808;2023-04-25T13:34:30;15.50;59.80
62583;DHT22;48641;51.676;5.808;2023-04-25T13:36:56;15.50;59.70
62583;DHT22;48641;51.676;5.808;2023-04-25T13:39:21;15.50;59.50
62583;DHT22;48641;51.676;5.808;2023-04-25T13:41:47;15.50;59.30
62583;DHT22;48641;51.676;5.808;2023-04-25T13:44:13;15.50;59.00
62583;DHT22;48641;51.676;5.808;2023-04-25T13:46:38;15.50;58.90
62583;DHT22;48641;51.676;5.808;2023-04-25T13:49:04;15.50;58.80
62583;DHT22;48641;51.676;5.808;2023-04-25T13:51:30;15.50;58.60
62583;DHT22;48641;51.676;5.808;2023-04-25T13:53:56;15.50;58.40
62583;DHT22;48641;51.676;5.808;2023-04-25T13:56:22;15.50;58.20
62583;DHT22;48641;51.676;5.808;2023-04-25T13:58:52;15.50;58.10
62583;DHT22;48641;51.676;5.808;2023-04-25T14:01:18;15.50;58.00
62583;DHT22;48641;51.676;5.808;2023-04-25T14:03:44;15.50;57.80
62583;DHT22;48641;51.676;5.808;2023-04-25T14:06:10;15.40;57.80
62583;DHT22;48641;51.676;5.808;2023-04-25T14:08:38;15.50;57.80
62583;DHT22;48641;51.676;5.808;2023-04-25T14:11:03;15.40;57.70
62583;DHT22;48641;51.676;5.808;2023-04-25T14:13:29;15.50;57.90
62583;DHT22;48641;51.676;5.808;2023-04-25T14:15:55;15.40;57.80
62583;DHT22;48641;51.676;5.808;2023-04-25T14:18:20;15.40;57.80
62583;DHT22;48641;51.676;5.808;2023-04-25T14:20:46;15.40;57.90
62583;DHT22;48641;51.676;5.808;2023-04-25T14:23:12;15.40;57.90
62583;DHT22;48641;51.676;5.808;2023-04-25T14:25:37;15.40;58.00
62583;DHT22;48641;51.676;5.808;2023-04-25T14:28:03;15.40;58.00
62583;DHT22;48641;51.676;5.808;2023-04-25T14:30:29;15.40;57.90
62583;DHT22;48641;51.676;5.808;2023-04-25T14:32:54;15.50;58.00
62583;DHT22;48641;51.676;5.808;2023-04-25T14:35:20;15.50;57.90
62583;DHT22;48641;51.676;5.808;2023-04-25T14:37:46;15.40;57.70
62583;DHT22;48641;51.676;5.808;2023-04-25T14:40:13;15.40;57.50
62583;DHT22;48641;51.676;5.808;2023-04-25T14:42:40;15.40;57.40
62583;DHT22;48641;51.676;5.808;2023-04-25T14:45:08;15.50;57.20
62583;DHT22;48641;51.676;5.808;2023-04-25T14:47:34;15.40;56.90
62583;DHT22;48641;51.676;5.808;2023-04-25T14:50:01;15.50;56.80
62583;DHT22;48641;51.676;5.808;2023-04-25T14:52:27;15.40;56.70
62583;DHT22;48641;51.676;5.808;2023-04-25T14:54:52;15.40;56.40
62583;DHT22;48641;51.676;5.808;2023-04-25T14:57:18;15.40;56.20
62583;DHT22;48641;51.676;5.808;2023-04-25T14:59:44;15.40;56.20
62583;DHT22;48641;51.676;5.808;2023-04-25T15:02:09;15.40;56.10
62583;DHT22;48641;51.676;5.808;2023-04-25T15:04:36;15.40;56.20
62583;DHT22;48641;51.676;5.808;2023-04-25T15:07:01;15.40;56.20
62583;DHT22;48641;51.676;5.808;2023-04-25T15:09:27;15.40;56.30
62583;DHT22;48641;51.676;5.808;2023-04-25T15:11:52;15.40;56.20
62583;DHT22;48641;51.676;5.808;2023-04-25T15:14:18;15.40;56.40
62583;DHT22;48641;51.676;5.808;2023-04-25T15:16:43;15.40;56.20
62583;DHT22;48641;51.676;5.808;2023-04-25T15:19:09;15.40;56.10
62583;DHT22;48641;51.676;5.808;2023-04-25T15:21:35;15.40;56.20
62583;DHT22;48641;51.676;5.808;2023-04-25T15:24:00;15.40;56.00
62583;DHT22;48641;51.676;5.808;2023-04-25T15:26:27;15.40;56.00
62583;DHT22;48641;51.676;5.808;2023-04-25T15:28:52;15.40;56.00
62583;DHT22;48641;51.676;5.808;2023-04-25T15:31:18;15.40;55.80